Latest Weather Observations for Leinster

IDW60801

Issued at 12:05 pm WST Sunday 21 September 2014 (issued every 30 minutes, with the page automatically refreshed every 10 minutes)

About weather observations | Map of weather stations | Latest weather observations for WA | Other Formats
Station Details ID: 012314 Name: LEINSTER AERO Lat: -27.84 Lon: 120.70 Height: 497.0 m
Data from the previous 72 hours. | See also: Recent months at Leinster
Date/Time
WST
Temp
°C
App
Temp
°C
Dew
Point
Rel
Hum
%
Delta-T
°C
Wind Press
QNH
hPa
Press
MSL
hPa
Rain
since 9 am
mm
Dir
 
Spd
km/h
Gust
km/h
Spd
kts
Gust
kts
21/12:00pm 33.0 24.9 -0.2 12 16.5 NNW 32 50 17 27 1013.1 1011.6 0.0
21/11:46am 33.4 26.0 -1.0 11 16.9 NW 28 46 15 25 1013.3 1011.8 0.0
21/11:30am 33.5 25.3 0.2 12 16.7 NNW 33 48 18 26 1013.8 1012.4 0.0
21/11:22am 33.4 25.7 0.1 12 16.7 NNW 30 48 16 26 1014.0 1012.5 0.0
21/11:00am 33.2 25.9 0.0 12 16.6 NNW 28 43 15 23 1014.4 1012.9 0.0
21/10:30am 32.4 25.0 -0.6 12 16.2 N 28 41 15 22 1015.0 1013.5 0.0
21/10:00am 31.0 24.4 -0.6 13 15.4 N 24 35 13 19 1015.5 1014.0 0.0
21/09:30am 30.3 22.9 -3.4 11 15.6 N 26 37 14 20 1016.0 1014.6 0.0
21/09:00am 29.8 22.8 -3.8 11 15.3 N 24 35 13 19 1016.5 1015.0 0.0
21/08:30am 28.6 20.7 -4.7 11 14.8 N 28 43 15 23 1016.7 1015.2 0.0
21/08:00am 26.9 20.0 -2.8 14 13.5 N 24 32 13 17 1016.6 1015.1 0.0
21/07:30am 25.0 18.1 -2.5 16 12.4 N 24 35 13 19 1016.6 1015.1 0.0
21/07:00am 23.4 16.6 -2.2 18 11.4 N 24 32 13 17 1016.4 1014.9 0.0
21/06:30am 22.2 16.3 -1.1 21 10.5 N 20 28 11 15 1016.0 1014.6 0.0
21/06:00am 21.5 15.6 -0.5 23 10.0 N 20 28 11 15 1016.0 1014.6 0.0
21/05:30am 21.1 15.3 -0.2 24 9.7 N 20 28 11 15 1015.8 1014.4 0.0
21/05:00am 21.2 15.6 -0.1 24 9.7 N 19 33 10 18 1015.4 1013.9 0.0
21/04:30am 21.7 15.5 -0.3 23 10.1 N 22 28 12 15 1015.3 1013.8 0.0
21/04:00am 21.8 16.6 -0.2 23 10.1 N 17 22 9 12 1015.3 1013.8 0.0
21/03:30am 22.1 17.6 0.0 23 10.2 N 13 22 7 12 1015.2 1013.7 0.0
21/03:00am 21.5 17.1 0.1 24 9.8 N 13 17 7 9 1015.3 1013.8 0.0
21/02:30am 20.2 16.4 -0.4 25 9.3 NNW 9 13 5 7 1015.5 1014.0 0.0
21/02:00am 22.2 17.7 -0.5 22 10.4 N 13 20 7 11 1015.4 1013.9 0.0
21/01:30am 22.3 17.8 -0.4 22 10.4 N 13 19 7 10 1015.7 1014.3 0.0
21/01:00am 21.7 17.2 -0.3 23 10.1 NNW 13 20 7 11 1015.8 1014.4 0.0
21/12:30am 22.7 18.2 -0.1 22 10.5 N 13 22 7 12 1015.7 1014.3 0.0
21/12:00am 23.3 18.1 -0.2 21 10.9 NE 17 20 9 11 1015.5 1014.0 0.0
 
Date/Time
WST
Temp
°C
App
Temp
°C
Dew
Point
Rel
Hum
%
Delta-T
°C
Wind Press
QNH
hPa
Press
MSL
hPa
Rain
since 9 am
mm
Dir
 
Spd
km/h
Gust
km/h
Spd
kts
Gust
kts
20/11:30pm 23.2 18.7 -0.3 21 10.9 NE 13 17 7 9 1015.7 1014.3 0.0
20/11:00pm 24.1 19.2 -0.2 20 11.3 NE 15 20 8 11 1015.8 1014.4 0.0
20/10:30pm 24.2 19.6 -0.9 19 11.6 NE 13 17 7 9 1015.9 1014.5 0.0
20/10:00pm 24.7 20.1 -1.2 18 11.9 NE 13 17 7 9 1016.4 1014.9 0.0
20/09:30pm 25.0 20.4 -0.9 18 12.0 ENE 13 17 7 9 1016.6 1015.1 0.0
20/09:00pm 24.5 19.9 -1.3 18 11.8 NE 13 15 7 8 1016.7 1015.2 0.0
20/08:30pm 25.4 20.8 -1.4 17 12.4 NE 13 15 7 8 1016.7 1015.2 0.0
20/08:00pm 25.7 21.4 -2.0 16 12.7 NNE 11 13 6 7 1016.6 1015.1 0.0
20/07:30pm 26.3 21.9 -2.4 15 13.1 NNE 11 13 6 7 1016.6 1015.1 0.0
20/07:00pm 27.4 23.1 -1.5 15 13.5 NE 11 13 6 7 1016.4 1014.9 0.0
20/06:30pm 28.9 24.9 -2.3 13 14.5 NNE 9 13 5 7 1016.4 1014.9 0.0
20/06:00pm 30.5 25.6 -3.3 11 15.7 NNE 13 20 7 11 1016.0 1014.6 0.0
20/05:30pm 31.6 25.5 -3.7 10 16.4 N 19 33 10 18 1015.8 1014.4 0.0
20/05:00pm 32.1 25.1 -3.3 10 16.6 NNE 24 32 13 17 1015.7 1014.3 0.0
20/04:30pm 32.7 27.1 -2.9 10 16.9 NNW 17 24 9 13 1015.7 1014.3 0.0
20/04:00pm 32.3 26.8 -1.9 11 16.4 NNE 17 22 9 12 1015.7 1014.3 0.0
20/03:30pm 32.5 26.7 -1.7 11 16.5 N 19 30 10 16 1015.7 1014.3 0.0
20/03:00pm 32.9 26.8 -2.7 10 17.0 N 20 32 11 17 1015.8 1014.4 0.0
20/02:47pm 32.4 24.7 -3.1 10 16.7 NNE 28 41 15 22 1015.9 1014.5 0.0
20/02:30pm 32.5 27.8 -1.7 11 16.5 N 13 17 7 9 1016.0 1014.6 0.0
20/02:00pm 32.4 27.3 0.5 13 16.0 NNE 17 32 9 17 1016.5 1015.0 0.0
20/01:30pm 32.0 26.4 0.2 13 15.8 N 19 24 10 13 1016.9 1015.4 0.0
20/01:00pm 31.3 25.2 0.6 14 15.3 NE 22 35 12 19 1017.3 1015.9 0.0
20/12:30pm 30.9 24.7 2.2 16 14.7 NNE 24 35 13 19 1017.7 1016.3 0.0
20/12:00pm 30.5 24.0 2.7 17 14.3 NE 26 39 14 21 1018.4 1016.9 0.0
20/11:30am 29.8 23.3 2.9 18 13.8 ENE 26 43 14 23 1018.8 1017.3 0.0
20/11:00am 28.7 22.0 3.5 20 12.9 ENE 28 41 15 22 1019.3 1017.9 0.0
20/10:30am 27.5 21.2 3.9 22 12.1 ENE 26 39 14 21 1019.6 1018.2 0.0
20/10:00am 26.4 19.4 4.2 24 11.4 NE 30 43 16 23 1020.0 1018.6 0.0
20/09:30am 25.7 18.7 4.2 25 11.0 ENE 30 41 16 22 1020.0 1018.6 0.0
20/09:18am 25.2 18.4 4.9 27 10.5 ENE 30 48 16 26 1020.1 1018.7 0.0
20/09:00am 23.8 17.7 4.7 29 9.7 ENE 26 41 14 22 1020.2 1018.8 0.0
20/08:30am 22.9 16.3 4.4 30 9.3 E 28 41 15 22 1020.4 1018.9 0.0
20/08:00am 21.5 14.6 4.6 33 8.5 ENE 30 43 16 23 1020.5 1019.0 0.0
20/07:30am 20.7 15.0 4.7 35 8.0 E 24 35 13 19 1020.5 1019.0 0.0
20/07:00am 19.4 14.3 4.3 37 7.4 E 20 32 11 17 1020.2 1018.8 0.0
20/06:30am 17.4 13.7 4.4 42 6.3 E 13 20 7 11 1019.9 1018.5 0.0
20/06:00am 16.3 12.9 4.0 44 5.9 E 11 15 6 8 1019.6 1018.2 0.0
20/05:30am 16.3 12.8 3.7 43 6.0 E 11 17 6 9 1019.4 1018.0 0.0
20/05:00am 16.5 13.0 3.6 42 6.1 E 11 13 6 7 1019.2 1017.8 0.0
20/04:30am 17.3 13.7 3.2 39 6.7 E 11 15 6 8 1019.0 1017.5 0.0
20/04:00am 18.0 14.5 3.5 38 6.9 E 11 15 6 8 1018.8 1017.3 0.0
20/03:30am 18.6 15.1 3.3 36 7.3 E 11 15 6 8 1018.7 1017.2 0.0
20/03:00am 19.3 15.4 3.5 35 7.6 E 13 20 7 11 1018.5 1017.0 0.0
20/02:30am 20.0 15.3 3.3 33 8.1 E 17 22 9 12 1018.6 1017.1 0.0
20/02:00am 19.5 15.0 2.4 32 8.1 E 15 19 8 10 1018.5 1017.0 0.0
20/01:30am 20.0 15.8 1.4 29 8.7 E 13 17 7 9 1018.6 1017.1 0.0
20/01:00am 21.2 16.7 2.0 28 9.1 ESE 15 22 8 12 1018.6 1017.1 0.0
20/12:30am 20.5 16.2 0.9 27 9.1 E 13 17 7 9 1018.5 1017.0 0.0
20/12:00am 19.8 16.2 0.8 28 8.7 E 9 11 5 6 1018.5 1017.0 0.0
 
Date/Time
WST
Temp
°C
App
Temp
°C
Dew
Point
Rel
Hum
%
Delta-T
°C
Wind Press
QNH
hPa
Press
MSL
hPa
Rain
since 9 am
mm
Dir
 
Spd
km/h
Gust
km/h
Spd
kts
Gust
kts
19/11:30pm 20.3 17.1 0.7 27 9.0 ESE 7 9 4 5 1018.6 1017.1 0.0
19/11:00pm 20.9 17.7 0.7 26 9.3 E 7 13 4 7 1018.6 1017.1 0.0
19/10:30pm 21.2 17.6 0.4 25 9.6 ESE 9 11 5 6 1018.8 1017.3 0.0
19/10:00pm 21.6 18.4 0.8 25 9.7 ESE 7 11 4 6 1018.8 1017.3 0.0
19/09:30pm 20.8 17.5 0.1 25 9.5 SE 7 9 4 5 1018.9 1017.4 0.0
19/09:00pm 21.0 17.8 -0.3 24 9.7 SE 6 7 3 4 1019.0 1017.5 0.0
19/08:30pm 22.3 19.2 0.2 23 10.3 SSE 6 7 3 4 1018.9 1017.4 0.0
19/08:00pm 23.3 19.9 -0.9 20 11.1 S 7 7 4 4 1018.8 1017.3 0.0
19/07:30pm 25.0 21.6 -0.9 18 12.0 SE 7 9 4 5 1018.6 1017.1 0.0
19/07:00pm 25.8 22.5 -1.1 17 12.5 SSE 6 9 3 5 1018.3 1016.8 0.0
19/06:30pm 26.9 23.3 -1.9 15 13.3 SSE 7 9 4 5 1017.8 1016.4 0.0
19/06:00pm 28.3 24.0 -1.7 14 14.0 SSE 11 15 6 8 1017.4 1016.0 0.0
19/05:30pm 29.2 23.3 -2.0 13 14.7 SE 19 24 10 13 1017.2 1015.7 0.0
19/05:00pm 29.7 24.3 -1.6 13 14.8 SSE 17 24 9 13 1016.9 1015.4 0.0
19/04:30pm 30.0 26.1 -1.4 13 15.0 SE 9 19 5 10 1016.6 1015.1 0.0
19/04:00pm 30.1 25.7 -2.4 12 15.2 SE 11 19 6 10 1016.5 1015.0 0.0
19/03:30pm 30.3 25.5 -2.2 12 15.3 SSW 13 19 7 10 1016.4 1014.9 0.0
19/03:00pm 29.6 25.2 -2.8 12 15.0 S 11 19 6 10 1016.5 1015.0 0.0
19/02:30pm 30.5 25.4 -2.1 12 15.4 SSW 15 19 8 10 1016.6 1015.1 0.0
19/02:00pm 30.2 24.5 -3.5 11 15.5 WSW 17 24 9 13 1016.8 1015.3 0.0
19/01:30pm 30.4 25.9 -3.3 11 15.6 WSW 11 19 6 10 1017.1 1015.6 0.0
19/01:00pm 29.4 23.5 -1.9 13 14.7 SSW 19 26 10 14 1017.5 1016.1 0.0
19/12:30pm 29.7 24.0 -0.6 14 14.6 W 19 30 10 16 1017.8 1016.4 0.0
19/12:00pm 28.7 24.3 0.4 16 13.8 SW 13 28 7 15 1018.0 1016.6 0.0
19/11:30am 28.1 23.4 0.8 17 13.4 SSW 15 22 8 12 1018.4 1016.9 0.0
19/11:00am 27.1 22.5 1.5 19 12.6 SSW 15 24 8 13 1018.6 1017.1 0.0
19/10:30am 27.0 22.4 3.5 22 12.0 S 17 24 9 13 1018.9 1017.4 0.0
19/10:00am 25.2 20.3 4.3 26 10.7 S 19 24 10 13 1019.1 1017.7 0.0
19/09:30am 24.5 20.0 4.3 27 10.3 SSW 17 24 9 13 1019.3 1017.9 0.0
19/09:00am 22.5 17.7 4.5 31 9.1 SSW 19 26 10 14 1019.4 1018.0 0.0
19/08:30am 21.4 16.4 4.5 33 8.5 S 20 28 11 15 1019.4 1018.0 0.0
19/08:00am 20.4 15.4 4.4 35 7.9 SSW 20 30 11 16 1019.1 1017.7 0.0
19/07:30am 19.6 15.2 4.5 37 7.5 SSW 17 20 9 11 1018.8 1017.3 0.0
19/07:00am 18.4 14.7 4.6 40 6.8 SSW 13 20 7 11 1018.3 1016.8 0.0
19/06:30am 17.4 13.7 4.7 43 6.2 SSW 13 20 7 11 1017.8 1016.4 0.0
19/06:00am 17.0 12.8 4.0 42 6.2 SSW 15 19 8 10 1017.5 1016.1 0.0
19/05:30am 17.4 13.5 3.3 39 6.7 SSW 13 19 7 10 1017.2 1015.7 0.0
19/05:00am 17.6 13.6 2.8 37 7.0 SSW 13 19 7 10 1016.9 1015.4 0.0
19/04:30am 17.7 14.4 2.5 36 7.1 SW 9 11 5 6 1016.5 1015.0 0.0
19/04:00am 17.9 14.9 1.8 34 7.4 SW 7 9 4 5 1016.2 1014.7 0.0
19/03:30am 18.6 14.8 1.6 32 7.9 SW 11 17 6 9 1015.9 1014.5 0.0
19/03:00am 18.8 14.9 1.3 31 8.1 SW 11 17 6 9 1015.7 1014.3 0.0
19/02:30am 18.9 15.0 1.0 30 8.2 WSW 11 17 6 9 1015.6 1014.2 0.0
19/02:00am 19.4 15.4 0.4 28 8.6 WSW 11 15 6 8 1015.7 1014.3 0.0
19/01:30am 19.4 15.3 -0.1 27 8.8 W 11 13 6 7 1015.7 1014.3 0.0
19/01:00am 20.0 16.3 -0.1 26 9.1 W 9 11 5 6 1015.6 1014.2 0.0
19/12:30am 20.5 16.9 0.4 26 9.2 W 9 11 5 6 1015.7 1014.3 0.0
19/12:00am 21.1 17.4 -0.2 24 9.7 WSW 9 15 5 8 1015.8 1014.4 0.0
 
Date/Time
WST
Temp
°C
App
Temp
°C
Dew
Point
Rel
Hum
%
Delta-T
°C
Wind Press
QNH
hPa
Press
MSL
hPa
Rain
since 9 am
mm
Dir
 
Spd
km/h
Gust
km/h
Spd
kts
Gust
kts
18/11:30pm 21.1 17.4 -0.2 24 9.7 W 9 13 5 7 1015.9 1014.5 0.0
18/11:00pm 21.7 17.6 -0.3 23 10.1 W 11 15 6 8 1015.9 1014.5 0.0
18/10:30pm 22.0 17.7 -1.3 21 10.5 WNW 11 15 6 8 1016.2 1014.7 0.0
18/10:00pm 22.2 17.8 -2.5 19 10.9 WNW 11 17 6 9 1016.0 1014.6 0.0
18/09:30pm 22.4 17.9 -3.1 18 11.1 NW 11 13 6 7 1015.9 1014.5 0.0
18/09:00pm 22.7 18.5 -3.6 17 11.4 NW 9 11 5 6 1016.0 1014.6 0.0
18/08:30pm 23.3 18.6 -4.8 15 11.9 WNW 11 11 6 6 1015.9 1014.5 0.0
18/08:00pm 23.9 19.6 -5.2 14 12.3 W 9 13 5 7 1015.8 1014.4 0.0
18/07:30pm 24.4 20.0 -5.8 13 12.7 WNW 9 13 5 7 1015.5 1014.0 0.0
18/07:00pm 26.0 21.6 -5.6 12 13.6 W 9 13 5 7 1015.0 1013.5 0.0
18/06:30pm 28.2 23.0 -6.3 10 14.9 WNW 13 19 7 10 1014.5 1013.0 0.0
18/06:00pm 29.2 23.7 -5.5 10 15.3 WNW 15 24 8 13 1014.0 1012.5 0.0
18/05:30pm 30.3 23.8 -6.1 9 16.1 WNW 20 33 11 18 1013.6 1012.1 0.0
18/05:00pm 30.9 23.7 -5.6 9 16.3 W 24 37 13 20 1013.3 1011.8 0.0
18/04:30pm 31.5 23.6 -5.2 9 16.6 W 28 37 15 20 1012.9 1011.4 0.0
18/04:00pm 31.8 24.3 -4.9 9 16.7 NW 26 37 14 20 1012.7 1011.2 0.0
18/03:30pm 31.8 24.3 -4.9 9 16.7 NW 26 41 14 22 1012.9 1011.4 0.0
18/03:00pm 32.3 24.8 -4.6 9 17.0 NW 26 37 14 20 1012.8 1011.3 0.0
18/02:30pm 32.4 24.4 -6.0 8 17.3 NW 28 46 15 25 1012.9 1011.4 0.0
18/02:15pm 31.6 22.7 -5.1 9 16.6 WNW 33 52 18 28 1013.1 1011.6 0.0
18/02:00pm 32.3 24.4 -4.6 9 17.0 WNW 28 37 15 20 1013.2 1011.7 0.0
18/01:39pm 31.8 23.9 -4.9 9 16.7 NW 28 46 15 25 1013.3 1011.8 0.0
18/01:30pm 32.1 25.0 -4.7 9 16.9 WNW 24 43 13 23 1013.4 1011.9 0.0
18/01:27pm 31.3 23.3 -5.3 9 16.5 WNW 28 46 15 25 1013.5 1012.0 0.0
18/01:00pm 32.3 25.9 -4.6 9 17.0 WNW 20 30 11 16 1013.7 1012.2 0.0
18/12:30pm 31.9 25.1 -4.9 9 16.8 WNW 22 37 12 20 1014.2 1012.7 0.0

Other Formats:

Comma delimited format used in spreadsheet applications
http://www.bom.gov.au/fwo/IDW60801/IDW60801.95448.axf

JavaScript Object Notation format (JSON) in row-major order
http://www.bom.gov.au/fwo/IDW60801/IDW60801.95448.json